| Date | Time | Temp. (oF) | Dew Point (oF) | Rel. Hum. (%) | Press. (in.) | Wind Dir. | Wind Speed (mph) | Hourly Rainfall (in.) |
|
|---|---|---|---|---|---|---|---|---|---|
| 1 | 01/28 | 00:00 | 7 | -6 | 54 | 30.72 | NNW | 4 | 0.00 |
| 2 | 01/27 | 23:00 | 9 | -5 | 51 | 30.71 | N | 5 | 0.00 |
| 3 | 01/27 | 22:00 | 9 | -5 | 50 | 30.69 | ENE | 2 | 0.00 |
| 4 | 01/27 | 21:00 | 12 | -3 | 49 | 30.67 | NNW | 8 | 0.00 |
| 5 | 01/27 | 20:00 | 12 | -2 | 51 | 30.65 | NW | 5 | 0.00 |
| 6 | 01/27 | 19:00 | 13 | -1 | 52 | 30.61 | NW | 5 | 0.00 |
| 7 | 01/27 | 18:00 | 15 | 0 | 49 | 30.57 | NW | 6 | 0.00 |
| 8 | 01/27 | 17:00 | 17 | 0 | 46 | 30.53 | NW | 7 | 0.00 |
| 9 | 01/27 | 16:00 | 19 | 2 | 47 | 30.50 | NNW | 13 | 0.00 |
| 10 | 01/27 | 15:00 | 18 | 2 | 49 | 30.48 | NW | 12 | 0.00 |
| 11 | 01/27 | 14:00 | 17 | 2 | 52 | 30.47 | NNW | 15 | 0.00 |
| 12 | 01/27 | 13:00 | 15 | 0 | 53 | 30.48 | NNE | 14 | 0.00 |
| 13 | 01/27 | 12:00 | 13 | 0 | 54 | 30.48 | N | 19 | 0.00 |
| 14 | 01/27 | 11:00 | 12 | 0 | 58 | 30.47 | N | 5 | 0.00 |
| 15 | 01/27 | 10:00 | 10 | 0 | 61 | 30.45 | NNW | 15 | 0.00 |
| 16 | 01/27 | 09:00 | 8 | -1 | 65 | 30.43 | NW | 8 | 0.00 |
| 17 | 01/27 | 08:00 | 6 | -2 | 66 | 30.40 | NW | 8 | 0.00 |
| 18 | 01/27 | 07:00 | 6 | -4 | 61 | 30.35 | NW | 9 | 0.00 |
| 19 | 01/27 | 06:00 | 7 | -3 | 61 | 30.30 | NW | 6 | 0.00 |
| 20 | 01/27 | 05:00 | 9 | 0 | 68 | 30.26 | NNW | 7 | 0.00 |
| 21 | 01/27 | 04:00 | 11 | 2 | 69 | 30.22 | NW | 11 | 0.00 |
| 22 | miss | miss | miss | miss | miss | miss | miss | miss | |
| 23 | 01/27 | 03:14 | 12 | 4 | 72 | 30.20 | NNW | 8 | 0.00 |
| 24 | miss | miss | miss | miss | miss | miss | miss | miss | |
| 25 | 01/27 | 03:12 | 12 | 4 | 72 | 30.19 | NNW | 14 | 0.00 |
| 26 | miss | miss | miss | miss | miss | miss | miss | miss | |
| 27 | 01/27 | 03:12 | 12 | 4 | 72 | 30.19 | NNW | 14 | 0.00 |
| 28 | miss | miss | miss | miss | miss | miss | miss | miss | |
| 29 | 01/27 | 03:12 | 12 | 4 | 72 | 30.19 | NNW | 14 | 0.00 |
| 30 | miss | miss | miss | miss | miss | miss | miss | miss | |
| 31 | 01/27 | 03:12 | 12 | 4 | 72 | 30.19 | NNW | 14 | 0.00 |
| 32 | miss | miss | miss | miss | miss | miss | miss | miss | |
| 33 | 01/27 | 03:12 | 12 | 4 | 72 | 30.19 | NNW | 14 | 0.00 |
| 34 | miss | miss | miss | miss | miss | miss | miss | miss | |
| 35 | 01/27 | 03:12 | 12 | 4 | 72 | 30.19 | NNW | 14 | 0.00 |
| 36 | miss | miss | miss | miss | miss | miss | miss | miss | |
| 37 | 01/27 | 03:12 | 12 | 4 | 72 | 30.19 | NNW | 14 | 0.00 |
| 38 | miss | miss | miss | miss | miss | miss | miss | miss | |
| 39 | 01/27 | 03:12 | 12 | 4 | 72 | 30.19 | NNW | 14 | 0.00 |
| 40 | miss | miss | miss | miss | miss | miss | miss | miss | |
| 41 | 01/27 | 03:12 | 12 | 4 | 72 | 30.19 | NNW | 14 | 0.00 |
| 42 | miss | miss | miss | miss | miss | miss | miss | miss | |
| 43 | 01/27 | 03:12 | 12 | 4 | 72 | 30.19 | NNW | 14 | 0.00 |
| 44 | miss | miss | miss | miss | miss | miss | miss | miss | |
| 45 | 01/27 | 03:12 | 12 | 4 | 72 | 30.19 | NNW | 14 | 0.00 |
| 46 | 01/27 | 03:00 | 12 | 5 | 73 | 30.18 | NNW | 6 | 0.00 |
| 47 | 01/27 | 02:00 | 14 | 6 | 71 | 30.15 | NNW | 8 | 0.00 |
| 48 | 01/27 | 01:00 | 16 | 7 | 69 | 30.10 | NNW | 11 | 0.00 |
| 49 | 01/27 | 00:00 | 18 | 9 | 70 | 30.06 | NW | 10 | 0.00 |
| 50 | 01/26 | 23:00 | 20 | 12 | 71 | 30.02 | NNW | 10 | 0.00 |
| 51 | 01/26 | 22:00 | 24 | 16 | 72 | 29.97 | NNW | 7 | 0.00 |
| 52 | 01/26 | 21:00 | 26 | 17 | 71 | 29.93 | NNW | 17 | 0.00 |
| 53 | 01/26 | 20:00 | 29 | 21 | 73 | 29.89 | NW | 8 | 0.00 |
| 54 | 01/26 | 19:00 | 32 | 23 | 72 | 29.85 | N | 8 | 0.00 |
| 55 | 01/26 | 18:00 | 34 | 26 | 75 | 29.79 | N | 15 | 0.00 |
| 56 | 01/26 | 17:00 | 37 | 30 | 76 | 29.73 | N | 7 | 0.00 |
| 57 | 01/26 | 16:00 | 39 | 31 | 73 | 29.70 | NNW | 6 | 0.00 |
| 58 | 01/26 | 15:00 | 38 | 31 | 77 | 29.68 | N | 2 | 0.00 |
| 59 | 01/26 | 14:00 | 36 | 30 | 80 | 29.66 | NW | 2 | 0.00 |
| 60 | 01/26 | 13:00 | 35 | 29 | 81 | 29.65 | SW | 2 | 0.00 |
| 61 | 01/26 | 12:00 | 35 | 30 | 84 | 29.65 | N | 3 | 0.00 |
| 62 | 01/26 | 11:00 | 33 | 30 | 90 | 29.65 | NW | 2 | 0.00 |
| 63 | 01/26 | 10:00 | 31 | 29 | 95 | 29.65 | S | 1 | 0.00 |
| 64 | 01/26 | 09:00 | 30 | 29 | 96 | 29.64 | SSE | 0 | 0.00 |
| 65 | 01/26 | 08:00 | 29 | 27 | 95 | 29.64 | SSE | 0 | 0.00 |
| 66 | 01/26 | 07:00 | 29 | 27 | 95 | 29.64 | S | 3 | 0.00 |
| 67 | 01/26 | 06:00 | 29 | 27 | 93 | 29.64 | S | 3 | 0.00 |
| 68 | 01/26 | 05:00 | 29 | 26 | 91 | 29.64 | SSW | 2 | 0.00 |
| 69 | 01/26 | 04:00 | 29 | 26 | 89 | 29.66 | SSE | 3 | 0.00 |
| 70 | 01/26 | 03:00 | 29 | 25 | 87 | 29.69 | SE | 5 | 0.00 |
| 71 | 01/26 | 02:00 | 29 | 24 | 84 | 29.71 | SE | 4 | 0.00 |
| 72 | 01/26 | 01:00 | 28 | 23 | 83 | 29.73 | S | 3 | 0.00 |
| 73 | 01/26 | 00:00 | 29 | 23 | 80 | 29.77 | S | 6 | 0.00 |